Accueil
METAR-TAF:

METAR-TAF

Aéroports :

Earlton, Ontario, Canada

latitude: 47-42N, longitude: 079-51W, altitude: 243 m

Observation

Le bulletin a été fait il y a 43 minutes, à 06:00 UTC
Vent 4 kt de ouest
Température -27°C
Humidité 75%
Pression 1021 hPa
Visibilité: 14.5 km
Ciel clair

METAR: CYXR 170600Z AUTO 27004KT 9SM CLR M27/M30 A3014 RMK SLP234

Heure: 01:43 (06:43 UTC)

Prévision

Le bulletin a été fait il y a 13 heures et 4 minutes, à 17:39 UTC
Prévision valable du 16 à 18 UTC au 17 à 01 UTC
Vent 12 kt de nord-ouest
Visibilité: 10 km
Nuages épars à une hauteur de 2500 ft
Ciel couvert à une hauteur de 4000 ft

TAF: CYXR 161739Z 1618/1701 32012KT P6SM SCT025 OVC040 RMK FCST BASED ON AUTO OBS. NXT FCST WILL BE ISSUED AT 171245Z

Observations et prévisions météorologiques de plus de 4000 aéroports (messages METAR et TAF).

Les stations disponibles sont représentées par des disques jaunes et rouges sur la carte.

Passer la souris dessus pour voir le nom de la station.

Cliquer dessus pour voir les observations et prévisions météorologiques.

Pour changer de carte: cliquez sur les boutons verts avec une croix noire pour zoomer, sur le bouton vert avec un tiret pour effectuer un zoom arrière, ou sur les flèches vertes pour les cartes adjacentes.


METAR-TAF: